createdAt,value
2023-01-17T03:59:13.308Z,461.00
2023-01-17T04:00:13.869Z,438.00
2023-01-17T04:01:14.050Z,436.00
2023-01-17T04:02:14.510Z,434.00
2023-01-17T04:03:14.103Z,430.00
2023-01-17T04:04:15.678Z,429.00
2023-01-17T04:05:15.918Z,428.00
2023-01-17T04:06:17.161Z,426.00
2023-01-17T04:07:14.347Z,426.00
2023-01-17T04:08:16.235Z,425.00
2023-01-17T04:09:14.669Z,424.00
2023-01-17T04:10:16.419Z,425.00
2023-01-17T04:11:16.669Z,426.00
2023-01-17T04:12:15.164Z,425.00
2023-01-17T04:13:17.027Z,423.00
2023-01-17T04:14:16.948Z,425.00
2023-01-17T04:15:17.077Z,427.00
2023-01-17T04:16:17.259Z,428.00
2023-01-17T04:17:17.361Z,428.00
2023-01-17T04:18:17.628Z,426.00
2023-01-17T04:19:16.897Z,425.00
2023-01-17T04:20:16.324Z,425.00
2023-01-17T04:21:16.447Z,425.00
2023-01-17T04:22:16.595Z,425.00
2023-01-17T04:23:16.715Z,424.00
2023-01-17T04:24:18.019Z,423.00
2023-01-17T04:25:18.456Z,424.00
2023-01-17T04:26:16.874Z,424.00
2023-01-17T04:27:17.042Z,425.00
2023-01-17T04:28:17.498Z,427.00
2023-01-17T04:29:17.362Z,426.00
2023-01-17T04:30:17.665Z,424.00
2023-01-17T04:31:17.969Z,422.00
2023-01-17T04:32:16.983Z,422.00
2023-01-17T04:33:18.700Z,420.00
2023-01-17T04:34:18.253Z,422.00
2023-01-17T04:35:19.048Z,424.00
2023-01-17T04:36:18.798Z,427.00
2023-01-17T04:37:19.580Z,427.00
2023-01-17T04:38:19.322Z,429.00
2023-01-17T04:39:19.552Z,430.00
2023-01-17T04:40:20.507Z,430.00
2023-01-17T04:41:18.180Z,430.00
2023-01-17T04:42:19.911Z,430.00
2023-01-17T04:43:19.474Z,428.00
2023-01-17T04:44:20.236Z,428.00
2023-01-17T04:45:21.174Z,427.00
2023-01-17T04:46:20.541Z,427.00
2023-01-17T04:47:21.682Z,425.00
2023-01-17T04:48:21.578Z,422.00
2023-01-17T04:49:21.763Z,420.00
2023-01-17T04:50:21.908Z,421.00
2023-01-17T04:51:22.017Z,422.00
2023-01-17T04:52:20.821Z,424.00
2023-01-17T04:53:20.819Z,425.00
2023-01-17T04:54:22.409Z,425.00
2023-01-17T04:55:22.552Z,424.00
2023-01-17T04:56:22.700Z,424.00
2023-01-17T04:57:22.000Z,424.00
2023-01-17T04:58:21.749Z,424.00
2023-01-17T04:59:20.641Z,424.00
2023-01-17T05:00:22.738Z,425.00
2023-01-17T05:01:20.956Z,424.00
2023-01-17T05:02:21.078Z,425.00
2023-01-17T05:03:23.258Z,422.00
2023-01-17T05:04:21.287Z,422.00
2023-01-17T05:05:23.064Z,421.00
2023-01-17T05:06:23.324Z,422.00
2023-01-17T05:07:25.025Z,422.00
2023-01-17T05:08:25.266Z,416.00
2023-01-17T05:09:22.998Z,416.00
2023-01-17T05:10:24.690Z,419.00
2023-01-17T05:11:24.706Z,418.00
2023-01-17T05:12:24.820Z,420.00
2023-01-17T05:13:24.975Z,418.00
2023-01-17T05:14:25.231Z,419.00
2023-01-17T05:15:25.477Z,418.00
2023-01-17T05:16:25.546Z,417.00
2023-01-17T05:17:25.556Z,417.00
2023-01-17T05:18:25.684Z,418.00
2023-01-17T05:19:25.812Z,418.00
2023-01-17T05:20:25.941Z,420.00
2023-01-17T05:21:24.725Z,420.00
2023-01-17T05:22:23.729Z,421.00
2023-01-17T05:23:23.832Z,426.00
2023-01-17T05:24:23.927Z,427.00
2023-01-17T05:25:26.184Z,429.00
2023-01-17T05:26:25.445Z,426.00
2023-01-17T05:27:24.355Z,425.00
2023-01-17T05:28:24.514Z,426.00
2023-01-17T05:29:24.625Z,422.00
2023-01-17T05:30:24.748Z,422.00
2023-01-17T05:31:26.059Z,419.00
2023-01-17T05:32:24.973Z,416.00
2023-01-17T05:33:25.124Z,417.00
2023-01-17T05:34:25.336Z,417.00
2023-01-17T05:35:25.467Z,415.00
2023-01-17T05:36:26.538Z,416.00
2023-01-17T05:37:26.834Z,418.00
2023-01-17T05:38:25.872Z,418.00
2023-01-17T05:39:27.008Z,417.00
2023-01-17T05:40:26.135Z,415.00
2023-01-17T05:41:26.258Z,415.00
2023-01-17T05:42:27.499Z,416.00
2023-01-17T05:43:27.517Z,415.00
2023-01-17T05:44:27.712Z,415.00
2023-01-17T05:45:27.762Z,415.00
2023-01-17T05:46:26.983Z,413.00
2023-01-17T05:47:28.155Z,412.00
2023-01-17T05:48:28.205Z,412.00
2023-01-17T05:49:28.350Z,413.00
2023-01-17T05:50:28.494Z,414.00
2023-01-17T05:51:28.759Z,415.00
2023-01-17T05:52:28.719Z,417.00
2023-01-17T05:53:30.300Z,418.00
2023-01-17T05:54:29.127Z,418.00
2023-01-17T05:55:29.849Z,418.00
2023-01-17T05:56:30.144Z,417.00
2023-01-17T05:57:30.819Z,417.00
2023-01-17T05:58:31.017Z,417.00
2023-01-17T05:59:37.123Z,418.00
2023-01-17T06:00:32.553Z,418.00
2023-01-17T06:01:30.877Z,417.00
2023-01-17T06:02:31.148Z,418.00
2023-01-17T06:03:30.283Z,419.00
2023-01-17T06:04:31.821Z,419.00
2023-01-17T06:05:32.254Z,418.00
2023-01-17T06:06:29.742Z,417.00
2023-01-17T06:07:29.829Z,420.00
2023-01-17T06:08:30.966Z,422.00
2023-01-17T06:09:31.230Z,422.00
2023-01-17T06:10:31.459Z,423.00
2023-01-17T06:11:31.356Z,426.00
2023-01-17T06:12:31.488Z,424.00
2023-01-17T06:13:30.648Z,425.00
2023-01-17T06:14:31.802Z,424.00
2023-01-17T06:15:32.572Z,423.00
2023-01-17T06:16:31.067Z,421.00
2023-01-17T06:17:32.211Z,421.00
2023-01-17T06:18:31.331Z,421.00
2023-01-17T06:19:31.456Z,423.00
2023-01-17T06:20:32.697Z,423.00
2023-01-17T06:21:32.679Z,425.00
2023-01-17T06:22:32.811Z,423.00
2023-01-17T06:23:31.960Z,420.00
2023-01-17T06:24:32.078Z,419.00
2023-01-17T06:25:33.840Z,420.00
2023-01-17T06:26:34.075Z,421.00
2023-01-17T06:27:32.456Z,423.00
2023-01-17T06:28:32.587Z,422.00
2023-01-17T06:29:33.716Z,421.00
2023-01-17T06:30:33.995Z,419.00
2023-01-17T06:31:33.059Z,422.00
2023-01-17T06:32:33.101Z,419.00
2023-01-17T06:33:33.275Z,419.00
2023-01-17T06:34:34.516Z,416.00
2023-01-17T06:35:34.503Z,414.00
2023-01-17T06:36:34.606Z,414.00
2023-01-17T06:37:36.435Z,416.00
2023-01-17T06:38:33.930Z,417.00
2023-01-17T06:39:34.058Z,414.00
2023-01-17T06:40:35.817Z,414.00
2023-01-17T06:41:36.582Z,416.00
2023-01-17T06:42:34.515Z,418.00
2023-01-17T06:43:34.643Z,419.00
2023-01-17T06:44:36.382Z,421.00
2023-01-17T06:45:34.933Z,421.00
2023-01-17T06:46:36.744Z,421.00
2023-01-17T06:47:35.175Z,419.00
2023-01-17T06:48:37.055Z,418.00
2023-01-17T06:49:35.508Z,418.00
2023-01-17T06:50:36.374Z,418.00
2023-01-17T06:51:37.700Z,419.00
2023-01-17T06:52:36.945Z,419.00
2023-01-17T06:53:37.071Z,419.00
2023-01-17T06:54:36.665Z,418.00
2023-01-17T06:55:40.184Z,418.00
2023-01-17T06:56:37.855Z,419.00
2023-01-17T06:57:36.688Z,419.00
2023-01-17T06:58:36.905Z,421.00
2023-01-17T06:59:37.031Z,421.00
2023-01-17T07:00:39.536Z,421.00
2023-01-17T07:01:38.489Z,422.00
2023-01-17T07:02:37.270Z,422.00
2023-01-17T07:03:37.508Z,421.00
2023-01-17T07:04:37.589Z,421.00
2023-01-17T07:05:37.704Z,418.00
2023-01-17T07:06:39.559Z,419.00
2023-01-17T07:07:38.056Z,420.00
2023-01-17T07:08:38.130Z,423.00
2023-01-17T07:09:38.311Z,424.00
2023-01-17T07:10:38.552Z,427.00
2023-01-17T07:11:41.699Z,425.00
2023-01-17T07:12:40.908Z,423.00
2023-01-17T07:13:42.196Z,425.00
2023-01-17T07:14:38.890Z,424.00
2023-01-17T07:15:39.989Z,426.00
2023-01-17T07:16:39.978Z,426.00
2023-01-17T07:17:42.165Z,428.00
2023-01-17T07:18:41.032Z,425.00
2023-01-17T07:19:39.619Z,422.00
2023-01-17T07:20:39.567Z,422.00
2023-01-17T07:21:41.350Z,422.00
2023-01-17T07:22:39.897Z,425.00
2023-01-17T07:23:40.023Z,426.00
2023-01-17T07:24:40.133Z,427.00
2023-01-17T07:25:42.838Z,427.00
2023-01-17T07:26:41.082Z,426.00
2023-01-17T07:27:40.546Z,426.00
2023-01-17T07:28:40.619Z,428.00
2023-01-17T07:29:41.581Z,429.00
2023-01-17T07:30:41.718Z,427.00
2023-01-17T07:31:44.153Z,427.00
2023-01-17T07:32:41.159Z,427.00
2023-01-17T07:33:42.335Z,427.00
2023-01-17T07:34:41.472Z,426.00
2023-01-17T07:35:41.625Z,425.00
2023-01-17T07:36:43.453Z,425.00
2023-01-17T07:37:41.805Z,425.00
2023-01-17T07:38:42.745Z,428.00
2023-01-17T07:39:42.176Z,428.00
2023-01-17T07:40:43.903Z,428.00
2023-01-17T07:41:42.538Z,427.00
2023-01-17T07:42:43.394Z,428.00
2023-01-17T07:43:42.624Z,428.00
2023-01-17T07:44:44.485Z,427.00
2023-01-17T07:45:42.970Z,427.00
2023-01-17T07:46:43.973Z,427.00
2023-01-17T07:47:44.860Z,427.00
2023-01-17T07:48:44.262Z,429.00
2023-01-17T07:49:45.922Z,427.00
2023-01-17T07:50:43.529Z,428.00
2023-01-17T07:51:45.306Z,428.00
2023-01-17T07:52:43.741Z,426.00
2023-01-17T07:53:45.653Z,424.00
2023-01-17T07:54:45.812Z,425.00
2023-01-17T07:55:47.487Z,427.00
2023-01-17T07:56:46.753Z,428.00
2023-01-17T07:57:46.292Z,429.00
2023-01-17T07:58:44.524Z,427.00
2023-01-17T07:59:44.593Z,430.00
2023-01-17T08:00:44.699Z,434.00
2023-01-17T08:01:48.471Z,432.00
2023-01-17T08:02:44.912Z,434.00
2023-01-17T08:03:46.785Z,432.00
2023-01-17T08:04:45.180Z,434.00
2023-01-17T08:05:46.057Z,434.00
2023-01-17T08:06:47.125Z,434.00
2023-01-17T08:07:45.531Z,437.00
2023-01-17T08:08:45.679Z,437.00
2023-01-17T08:09:45.877Z,437.00
2023-01-17T08:10:46.842Z,436.00
2023-01-17T08:11:47.797Z,436.00
2023-01-17T08:12:46.249Z,437.00
2023-01-17T08:13:47.383Z,433.00
2023-01-17T08:14:50.478Z,434.00
2023-01-17T08:15:46.740Z,434.00
2023-01-17T08:16:50.008Z,431.00
2023-01-17T08:17:47.025Z,430.00
2023-01-17T08:18:48.759Z,429.00
2023-01-17T08:19:47.340Z,431.00
2023-01-17T08:20:49.098Z,431.00
2023-01-17T08:21:49.400Z,431.00
2023-01-17T08:22:48.556Z,433.00
2023-01-17T08:23:49.679Z,437.00
2023-01-17T08:24:47.918Z,436.00
2023-01-17T08:25:49.983Z,436.00
2023-01-17T08:26:48.888Z,436.00
2023-01-17T08:27:48.366Z,435.00
2023-01-17T08:28:48.532Z,436.00
2023-01-17T08:29:50.605Z,435.00
2023-01-17T08:30:49.214Z,434.00
2023-01-17T08:31:48.991Z,434.00
2023-01-17T08:32:49.158Z,432.00
2023-01-17T08:33:52.597Z,431.00
2023-01-17T08:34:49.430Z,432.00
2023-01-17T08:35:49.962Z,431.00
2023-01-17T08:36:49.947Z,429.00
2023-01-17T08:37:50.336Z,430.00
2023-01-17T08:38:50.068Z,431.00
2023-01-17T08:39:51.666Z,428.00
2023-01-17T08:40:50.275Z,427.00
2023-01-17T08:41:53.370Z,429.00
2023-01-17T08:42:50.435Z,430.00
2023-01-17T08:43:50.818Z,431.00
2023-01-17T08:44:52.487Z,431.00
2023-01-17T08:45:50.935Z,430.00
2023-01-17T08:46:52.345Z,431.00
2023-01-17T08:47:52.217Z,432.00
2023-01-17T08:48:51.201Z,432.00
2023-01-17T08:49:51.288Z,433.00
2023-01-17T08:50:54.004Z,435.00
2023-01-17T08:51:51.634Z,439.00
2023-01-17T08:52:51.709Z,439.00
2023-01-17T08:53:52.687Z,438.00
2023-01-17T08:54:52.036Z,438.00
2023-01-17T08:55:53.226Z,436.00
2023-01-17T08:56:53.160Z,436.00
2023-01-17T08:57:52.453Z,437.00
2023-01-17T08:58:52.880Z,434.00
2023-01-17T08:59:52.562Z,435.00
2023-01-17T09:00:53.069Z,436.00
2023-01-17T09:01:57.134Z,437.00
2023-01-17T09:02:53.634Z,437.00
2023-01-17T09:03:53.140Z,437.00
2023-01-17T09:04:54.961Z,437.00
2023-01-17T09:05:54.742Z,435.00
2023-01-17T09:06:54.527Z,434.00
2023-01-17T09:07:53.497Z,437.00
2023-01-17T09:08:57.193Z,437.00
2023-01-17T09:09:53.735Z,437.00
2023-01-17T09:10:55.661Z,437.00
2023-01-17T09:11:53.998Z,435.00
2023-01-17T09:12:55.067Z,436.00
2023-01-17T09:13:55.320Z,438.00
2023-01-17T09:14:54.435Z,436.00
2023-01-17T09:15:54.493Z,438.00
2023-01-17T09:16:56.393Z,439.00
2023-01-17T09:17:55.530Z,439.00
2023-01-17T09:18:54.965Z,439.00
2023-01-17T09:19:55.060Z,438.00
2023-01-17T09:20:55.166Z,439.00
2023-01-17T09:21:56.941Z,439.00
2023-01-17T09:22:56.351Z,442.00
2023-01-17T09:23:56.981Z,444.00
2023-01-17T09:24:57.948Z,444.00
2023-01-17T09:25:55.849Z,444.00
2023-01-17T09:26:57.643Z,444.00
2023-01-17T09:27:56.159Z,443.00
2023-01-17T09:28:59.860Z,443.00
2023-01-17T09:29:59.912Z,444.00
2023-01-17T09:30:57.921Z,445.00
2023-01-17T09:31:58.085Z,448.00
2023-01-17T09:32:56.858Z,448.00
2023-01-17T09:33:58.938Z,448.00
2023-01-17T09:34:57.131Z,450.00
2023-01-17T09:35:58.858Z,450.00
2023-01-17T09:36:57.396Z,447.00
2023-01-17T09:37:59.019Z,448.00
2023-01-17T09:38:57.690Z,449.00
2023-01-17T09:39:57.877Z,450.00
2023-01-17T09:40:59.717Z,450.00
2023-01-17T09:41:58.859Z,450.00
2023-01-17T09:42:58.995Z,449.00
2023-01-17T09:43:59.236Z,445.00
2023-01-17T09:44:59.378Z,447.00
2023-01-17T09:46:00.261Z,446.00
2023-01-17T09:46:58.742Z,446.00
2023-01-17T09:47:58.838Z,447.00
2023-01-17T09:48:58.945Z,445.00
2023-01-17T09:50:00.036Z,445.00
2023-01-17T09:51:02.811Z,444.00
2023-01-17T09:52:00.315Z,443.00
2023-01-17T09:53:01.375Z,440.00
2023-01-17T09:53:59.616Z,442.00
2023-01-17T09:55:01.361Z,445.00
2023-01-17T09:56:01.929Z,443.00
2023-01-17T09:56:59.982Z,446.00
2023-01-17T09:58:01.840Z,448.00
2023-01-17T09:59:01.158Z,448.00
2023-01-17T10:00:07.145Z,447.00
2023-01-17T10:01:01.588Z,444.00
2023-01-17T10:02:01.821Z,444.00
2023-01-17T10:13:31.117Z,485.00
2023-01-17T10:14:29.849Z,461.00
2023-01-17T10:15:31.761Z,454.00
2023-01-17T10:16:30.085Z,453.00
2023-01-17T10:17:32.097Z,457.00
2023-01-17T10:18:31.219Z,454.00
2023-01-17T10:19:31.416Z,453.00
2023-01-17T10:20:31.293Z,452.00
2023-01-17T10:21:32.766Z,452.00
2023-01-17T10:22:30.904Z,455.00
2023-01-17T10:23:31.782Z,457.00
2023-01-17T10:24:32.567Z,456.00
2023-01-17T10:25:33.305Z,457.00
2023-01-17T10:26:35.090Z,455.00
2023-01-17T10:27:32.391Z,454.00
2023-01-17T10:28:32.381Z,456.00
2023-01-17T10:29:34.536Z,460.00
2023-01-17T10:30:32.671Z,458.00
2023-01-17T10:31:33.910Z,458.00
2023-01-17T10:32:34.085Z,457.00
2023-01-17T10:33:33.109Z,458.00
2023-01-17T10:34:33.271Z,457.00
2023-01-17T10:35:32.569Z,456.00
2023-01-17T10:36:33.338Z,456.00
2023-01-17T10:37:34.512Z,456.00
2023-01-17T10:38:34.969Z,459.00
2023-01-17T10:39:33.802Z,460.00
2023-01-17T10:40:33.249Z,462.00
2023-01-17T10:41:33.483Z,466.00
2023-01-17T10:42:33.351Z,468.00
2023-01-17T10:43:35.320Z,467.00
2023-01-17T10:44:33.728Z,466.00
2023-01-17T10:45:34.513Z,465.00
2023-01-17T10:46:33.951Z,464.00
2023-01-17T10:47:35.666Z,463.00
2023-01-17T10:48:38.454Z,465.00
2023-01-17T10:49:34.968Z,466.00
2023-01-17T10:50:34.802Z,465.00
2023-01-17T10:51:36.314Z,461.00
2023-01-17T10:52:34.672Z,460.00
2023-01-17T10:53:36.561Z,461.00
2023-01-17T10:54:34.937Z,462.00
2023-01-17T10:55:37.596Z,462.00
2023-01-17T10:56:36.105Z,464.00
2023-01-17T10:57:36.185Z,461.00
2023-01-17T10:58:35.491Z,461.00
2023-01-17T10:59:37.568Z,461.00
2023-01-17T11:00:35.713Z,459.00
2023-01-17T11:01:38.548Z,455.00
2023-01-17T11:02:36.800Z,452.00
2023-01-17T11:03:36.909Z,452.00
2023-01-17T11:04:39.539Z,454.00
2023-01-17T11:05:38.269Z,453.00
2023-01-17T11:06:46.455Z,453.00
2023-01-17T11:07:40.196Z,452.00
2023-01-17T11:08:38.063Z,449.00
2023-01-17T11:09:37.887Z,449.00
2023-01-17T11:10:37.201Z,455.00
2023-01-17T11:11:39.802Z,455.00
2023-01-17T11:12:38.244Z,452.00
2023-01-17T11:13:38.229Z,451.00
2023-01-17T11:14:38.391Z,452.00
2023-01-17T11:15:37.758Z,455.00
2023-01-17T11:16:37.848Z,455.00
2023-01-17T11:17:39.637Z,456.00
2023-01-17T11:18:38.769Z,455.00
2023-01-17T11:19:41.498Z,455.00
2023-01-17T11:20:39.096Z,456.00
2023-01-17T11:21:39.257Z,457.00
2023-01-17T11:22:41.257Z,460.00
2023-01-17T11:23:42.050Z,460.00
2023-01-17T11:24:38.879Z,460.00
2023-01-17T11:25:39.902Z,459.00
2023-01-17T11:26:40.052Z,460.00
2023-01-17T11:27:39.956Z,461.00
2023-01-17T11:28:42.255Z,459.00
2023-01-17T11:29:40.470Z,456.00
2023-01-17T11:30:40.676Z,455.00
2023-01-17T11:31:40.598Z,453.00
2023-01-17T11:32:40.763Z,456.00
2023-01-17T11:33:43.163Z,455.00
2023-01-17T11:34:41.137Z,455.00
2023-01-17T11:35:40.375Z,452.00
2023-01-17T11:36:41.397Z,452.00
2023-01-17T11:37:40.616Z,454.00
2023-01-17T11:38:42.384Z,454.00
2023-01-17T11:39:44.388Z,456.00
2023-01-17T11:40:40.976Z,456.00
2023-01-17T11:41:41.976Z,457.00
2023-01-17T11:42:42.098Z,459.00
2023-01-17T11:43:41.474Z,457.00
2023-01-17T11:44:43.876Z,455.00
2023-01-17T11:45:44.454Z,455.00
2023-01-17T11:46:44.224Z,453.00
2023-01-17T11:47:42.645Z,452.00
2023-01-17T11:48:42.804Z,455.00
2023-01-17T11:49:43.000Z,452.00
2023-01-17T11:50:44.433Z,451.00
2023-01-17T11:51:43.290Z,451.00
2023-01-17T11:52:44.465Z,453.00
2023-01-17T11:53:44.555Z,453.00
2023-01-17T11:54:43.507Z,455.00
2023-01-17T11:55:43.664Z,450.00
2023-01-17T11:56:43.832Z,450.00
2023-01-17T11:57:46.267Z,448.00
2023-01-17T11:58:43.353Z,448.00
2023-01-17T11:59:45.388Z,448.00
2023-01-17T12:00:43.615Z,450.00
2023-01-17T12:01:44.631Z,450.00
2023-01-17T12:02:45.542Z,452.00
2023-01-17T12:03:44.084Z,453.00
2023-01-17T12:04:44.167Z,454.00
2023-01-17T12:05:46.871Z,455.00
2023-01-17T12:06:57.287Z,453.00
2023-01-17T12:07:46.375Z,453.00
2023-01-17T12:08:45.491Z,454.00
2023-01-17T12:09:46.463Z,455.00
2023-01-17T12:10:45.070Z,456.00
2023-01-17T12:11:45.140Z,456.00
2023-01-17T12:12:45.230Z,457.00
2023-01-17T12:13:48.447Z,456.00
2023-01-17T12:14:48.724Z,455.00
2023-01-17T12:15:45.830Z,455.00
2023-01-17T12:16:46.786Z,454.00
2023-01-17T12:17:46.789Z,455.00
2023-01-17T12:18:55.462Z,456.00
2023-01-17T12:19:47.019Z,456.00
2023-01-17T12:20:47.039Z,455.00
2023-01-17T12:21:47.089Z,457.00
2023-01-17T12:22:47.217Z,457.00
2023-01-17T12:23:48.635Z,458.00
2023-01-17T12:24:47.461Z,459.00
2023-01-17T12:25:47.169Z,458.00
2023-01-17T12:26:48.073Z,456.00
2023-01-17T12:27:47.624Z,456.00
2023-01-17T12:28:48.430Z,456.00
2023-01-17T12:29:48.788Z,458.00
2023-01-17T12:30:51.250Z,458.00
2023-01-17T12:31:48.505Z,459.00
2023-01-17T12:32:48.567Z,460.00
2023-01-17T12:33:48.730Z,461.00
2023-01-17T12:34:50.210Z,461.00
2023-01-17T12:35:50.787Z,461.00
2023-01-17T12:36:49.625Z,463.00
2023-01-17T12:38:04.218Z,466.00
2023-01-17T12:38:50.677Z,468.00
2023-01-17T12:39:50.563Z,467.00
2023-01-17T12:40:50.253Z,464.00
2023-01-17T12:41:50.785Z,463.00
2023-01-17T12:42:49.573Z,464.00
2023-01-17T12:43:50.321Z,461.00
2023-01-17T12:44:50.816Z,460.00
2023-01-17T12:45:50.037Z,460.00
2023-01-17T12:46:51.803Z,461.00
2023-01-17T12:47:50.724Z,460.00
2023-01-17T12:48:50.369Z,458.00
2023-01-17T12:49:51.229Z,458.00
2023-01-17T12:50:52.328Z,457.00
2023-01-17T12:51:52.330Z,454.00
2023-01-17T12:52:50.959Z,449.00
2023-01-17T12:53:50.888Z,448.00
2023-01-17T12:54:51.450Z,451.00
2023-01-17T12:55:53.223Z,454.00
2023-01-17T12:56:52.514Z,455.00
2023-01-17T12:57:55.471Z,458.00
2023-01-17T12:58:52.248Z,462.00
2023-01-17T12:59:51.945Z,464.00
2023-01-17T13:00:53.381Z,464.00
2023-01-17T13:01:54.156Z,465.00
2023-01-17T13:02:52.805Z,467.00
2023-01-17T13:03:52.284Z,470.00
2023-01-17T13:04:58.399Z,471.00
2023-01-17T13:05:56.302Z,471.00
2023-01-17T13:06:52.679Z,470.00
2023-01-17T13:07:54.012Z,466.00
2023-01-17T13:08:53.061Z,463.00
2023-01-17T13:09:56.005Z,462.00
2023-01-17T13:10:53.602Z,461.00
2023-01-17T13:11:53.232Z,461.00
2023-01-17T13:12:53.338Z,462.00
2023-01-17T13:13:55.088Z,464.00
2023-01-17T13:14:55.056Z,461.00
2023-01-17T13:15:54.707Z,458.00
2023-01-17T13:16:54.897Z,462.00
2023-01-17T13:17:57.046Z,463.00
2023-01-17T13:18:57.092Z,462.00
2023-01-17T13:19:54.481Z,461.00
2023-01-17T13:20:55.221Z,462.00
2023-01-17T13:21:54.592Z,466.00
2023-01-17T13:22:57.342Z,465.00
2023-01-17T13:23:54.805Z,467.00
2023-01-17T13:24:54.928Z,468.00
2023-01-17T13:25:55.075Z,468.00
2023-01-17T13:26:56.328Z,466.00
2023-01-17T13:27:57.139Z,466.00
2023-01-17T13:28:56.449Z,465.00
2023-01-17T13:29:55.643Z,465.00
2023-01-17T13:30:55.676Z,463.00
2023-01-17T13:31:55.828Z,464.00
2023-01-17T13:32:56.032Z,466.00
2023-01-17T13:33:58.719Z,468.00
2023-01-17T13:34:56.352Z,470.00
2023-01-17T13:35:56.450Z,467.00
2023-01-17T13:36:58.180Z,467.00
2023-01-17T13:37:56.734Z,467.00
2023-01-17T13:38:56.868Z,467.00
2023-01-17T13:39:59.578Z,464.00
2023-01-17T13:40:57.648Z,465.00
2023-01-17T13:41:57.307Z,464.00
2023-01-17T13:42:59.549Z,462.00
2023-01-17T13:44:00.721Z,464.00
2023-01-17T13:44:57.595Z,463.00
2023-01-17T13:46:03.305Z,465.00
2023-01-17T13:46:57.885Z,465.00
2023-01-17T13:47:59.622Z,464.00
2023-01-17T13:48:59.877Z,463.00
2023-01-17T13:50:00.134Z,466.00
2023-01-17T13:50:59.263Z,467.00
2023-01-17T13:52:01.143Z,466.00
2023-01-17T13:52:58.656Z,467.00
2023-01-17T13:53:58.795Z,469.00
2023-01-17T13:54:59.969Z,472.00
2023-01-17T13:55:59.879Z,470.00
2023-01-17T13:57:02.576Z,467.00
2023-01-17T13:57:59.363Z,465.00
2023-01-17T13:58:59.496Z,464.00
2023-01-17T13:59:59.623Z,462.00
2023-01-17T14:01:03.097Z,461.00
2023-01-17T14:01:59.991Z,462.00
2023-01-17T14:03:01.035Z,461.00
2023-01-17T14:04:00.173Z,462.00
2023-01-17T14:05:00.365Z,463.00
2023-01-17T14:06:02.036Z,464.00
2023-01-17T14:07:00.550Z,465.00
2023-01-17T14:08:00.679Z,466.00
2023-01-17T14:09:02.271Z,466.00
2023-01-17T14:10:02.804Z,468.00
2023-01-17T14:11:01.090Z,470.00
2023-01-17T14:12:01.108Z,467.00
2023-01-17T14:13:02.169Z,464.00
2023-01-17T14:14:01.472Z,463.00
2023-01-17T14:15:04.113Z,461.00
2023-01-17T14:16:01.785Z,461.00
2023-01-17T14:17:01.891Z,463.00
2023-01-17T14:18:03.396Z,464.00
2023-01-17T14:19:06.905Z,466.00
2023-01-17T14:20:07.291Z,468.00
2023-01-17T14:21:03.439Z,469.00
2023-01-17T14:22:05.574Z,468.00
2023-01-17T14:23:05.357Z,466.00
2023-01-17T14:24:02.893Z,462.00
2023-01-17T14:25:03.143Z,460.00
2023-01-17T14:26:03.206Z,458.00
2023-01-17T14:27:03.395Z,457.00
2023-01-17T14:28:04.683Z,459.00
2023-01-17T14:29:07.098Z,459.00
2023-01-17T14:30:10.800Z,457.00
2023-01-17T14:31:03.971Z,456.00
2023-01-17T14:32:05.721Z,454.00
2023-01-17T14:33:05.988Z,456.00
2023-01-17T14:34:07.282Z,459.00
2023-01-17T14:35:05.815Z,460.00
2023-01-17T14:36:05.579Z,458.00
2023-01-17T14:37:05.954Z,460.00
2023-01-17T14:38:08.111Z,461.00
2023-01-17T14:39:05.012Z,459.00
2023-01-17T14:40:05.125Z,459.00
2023-01-17T14:41:06.657Z,458.00
2023-01-17T14:42:06.324Z,457.00
2023-01-17T14:43:08.144Z,454.00
2023-01-17T14:44:06.456Z,455.00
2023-01-17T14:45:06.612Z,455.00
2023-01-17T14:46:07.580Z,454.00
2023-01-17T14:47:08.515Z,454.00
2023-01-17T14:48:06.896Z,456.00
2023-01-17T14:49:09.041Z,456.00
2023-01-17T14:50:08.180Z,458.00
2023-01-17T14:51:07.320Z,457.00
2023-01-17T14:52:07.787Z,459.00
2023-01-17T14:53:09.485Z,460.00
2023-01-17T14:54:09.809Z,460.00
2023-01-17T14:55:09.702Z,462.00
2023-01-17T14:56:07.215Z,463.00
2023-01-17T14:57:08.917Z,463.00
2023-01-17T14:58:08.421Z,461.00
2023-01-17T14:59:09.276Z,463.00
2023-01-17T15:00:07.717Z,462.00
2023-01-17T15:01:07.957Z,462.00
2023-01-17T15:02:09.152Z,464.00
2023-01-17T15:03:09.801Z,464.00
2023-01-17T15:04:08.277Z,461.00
2023-01-17T15:05:08.476Z,461.00
2023-01-17T15:06:08.553Z,462.00
2023-01-17T15:07:08.667Z,462.00
2023-01-17T15:08:10.437Z,464.00
2023-01-17T15:09:10.722Z,461.00
2023-01-17T15:10:09.837Z,460.00
2023-01-17T15:11:09.997Z,459.00
2023-01-17T15:12:10.171Z,459.00
2023-01-17T15:13:09.468Z,459.00
2023-01-17T15:14:13.136Z,461.00
2023-01-17T15:15:11.441Z,460.00
2023-01-17T15:16:09.935Z,460.00
2023-01-17T15:17:11.636Z,457.00
2023-01-17T15:18:11.887Z,457.00
2023-01-17T15:19:10.297Z,456.00
2023-01-17T15:20:12.054Z,455.00
2023-01-17T15:21:10.589Z,456.00
2023-01-17T15:22:12.546Z,458.00
2023-01-17T15:23:12.584Z,457.00
2023-01-17T15:24:10.945Z,458.00
2023-01-17T15:25:11.117Z,458.00
2023-01-17T15:26:12.876Z,456.00
2023-01-17T15:27:11.400Z,457.00
2023-01-17T15:28:13.140Z,456.00
2023-01-17T15:29:11.677Z,455.00
2023-01-17T15:30:11.843Z,454.00
2023-01-17T15:31:11.935Z,455.00
2023-01-17T15:32:13.041Z,453.00
2023-01-17T15:33:13.282Z,451.00
2023-01-17T15:34:15.234Z,450.00
2023-01-17T15:35:12.423Z,450.00
2023-01-17T15:36:12.530Z,452.00
2023-01-17T15:37:13.818Z,452.00
2023-01-17T15:38:13.932Z,454.00
2023-01-17T15:39:14.011Z,453.00
2023-01-17T15:40:13.035Z,451.00
2023-01-17T15:41:13.181Z,453.00
2023-01-17T15:42:13.362Z,455.00
2023-01-17T15:43:14.611Z,453.00
2023-01-17T15:44:13.553Z,451.00
2023-01-17T15:45:13.712Z,452.00
2023-01-17T15:46:15.030Z,453.00
2023-01-17T15:47:14.117Z,452.00
2023-01-17T15:48:15.175Z,453.00
2023-01-17T15:49:17.502Z,452.00
2023-01-17T15:50:15.709Z,450.00
2023-01-17T15:51:15.820Z,450.00
2023-01-17T15:52:15.790Z,452.00
2023-01-17T15:53:14.893Z,451.00
2023-01-17T15:54:16.142Z,450.00
2023-01-17T15:55:16.140Z,448.00
2023-01-17T15:56:15.285Z,449.00
2023-01-17T15:57:17.020Z,448.00
2023-01-17T15:58:16.512Z,448.00
2023-01-17T15:59:15.674Z,447.00
2023-01-17T16:00:16.127Z,447.00
2023-01-17T16:01:17.101Z,446.00
2023-01-17T16:12:43.326Z,491.00
2023-01-17T16:13:43.583Z,471.00
2023-01-17T16:14:59.498Z,467.00
2023-01-17T16:15:44.682Z,467.00
2023-01-17T16:16:43.860Z,467.00
2023-01-17T16:17:45.601Z,466.00
2023-01-17T16:18:44.125Z,464.00
2023-01-17T16:19:44.244Z,465.00
2023-01-17T16:20:45.501Z,466.00
2023-01-17T16:21:46.245Z,464.00
2023-01-17T16:22:44.633Z,466.00
2023-01-17T16:23:44.742Z,466.00
2023-01-17T16:24:44.827Z,466.00
2023-01-17T16:25:47.592Z,465.00
2023-01-17T16:26:45.167Z,463.00
2023-01-17T16:27:45.294Z,461.00
2023-01-17T16:28:45.405Z,461.00
2023-01-17T16:29:46.293Z,462.00
2023-01-17T16:30:48.189Z,463.00
2023-01-17T16:31:46.615Z,463.00
2023-01-17T16:32:45.971Z,464.00
2023-01-17T16:33:47.740Z,466.00
2023-01-17T16:34:46.234Z,466.00
2023-01-17T16:35:46.402Z,464.00
2023-01-17T16:36:49.563Z,461.00
2023-01-17T16:37:49.638Z,457.00
2023-01-17T16:38:46.811Z,457.00
2023-01-17T16:39:46.899Z,460.00
2023-01-17T16:40:47.981Z,458.00
2023-01-17T16:41:48.762Z,455.00
2023-01-17T16:42:48.523Z,456.00
2023-01-17T16:43:49.249Z,456.00
2023-01-17T16:44:48.537Z,456.00
2023-01-17T16:45:47.698Z,459.00
2023-01-17T16:46:47.864Z,458.00
2023-01-17T16:47:47.918Z,457.00
2023-01-17T16:48:49.659Z,458.00
2023-01-17T16:49:48.242Z,458.00